Time;durP1;ratioP1;P1;durP2;ratioP2;P2;SDS_P1;SDS_P2;PMS_P1;PMS_P2;Temp;Humidity;BMP_temperature;BMP_pressure;BME280_temperature;BME280_humidity;BME280_pressure;Samples;Min_cycle;Max_cycle;Signal;HPM_P1;HPM_P2
2021/04/07 00:02:24;;;;;;;;;;;1.50;96.40;;;;;;5062682;28;19905;-84
2021/04/07 00:05:00;;;;;;;;;;;1.40;96.00;;;;;;5065013;28;20268;-83
2021/04/07 00:07:25;;;;;;;;;;;1.40;96.00;;;;;;5075685;28;19909;-83
2021/04/07 00:09:51;;;;;;;;;;;1.40;96.00;;;;;;5077650;28;20048;-83
2021/04/07 00:12:17;;;;;;;;;;;1.40;96.20;;;;;;5079658;28;19920;-83
2021/04/07 00:14:43;;;;;;;;;;;1.30;96.00;;;;;;5075363;28;19947;-83
2021/04/07 00:17:11;;;;;;;;;;;1.30;96.20;;;;;;5063749;28;19911;-83
2021/04/07 00:19:36;;;;;;;;;;;1.20;96.10;;;;;;5062704;28;20011;-83
2021/04/07 00:22:02;;;;;;;;;;;1.30;96.30;;;;;;5061953;28;19944;-84
2021/04/07 00:24:27;;;;;;;;;;;1.30;96.30;;;;;;5061890;28;20428;-83
2021/04/07 00:26:53;;;;;;;;;;;1.40;96.50;;;;;;5063675;28;19922;-84
2021/04/07 00:29:18;;;;;;;;;;;1.40;96.10;;;;;;5067220;28;19905;-84
2021/04/07 00:31:44;;;;;;;;;;;1.40;96.00;;;;;;5069167;28;19905;-84
2021/04/07 00:34:10;;;;;;;;;;;1.40;96.00;;;;;;5074666;28;19905;-84
2021/04/07 00:36:35;;;;;;;;;;;1.40;95.90;;;;;;5078147;28;19905;-83
2021/04/07 00:39:02;;;;;;;;;;;1.50;95.60;;;;;;5077864;28;19917;-83
2021/04/07 00:41:27;;;;;;;;;;;1.40;95.90;;;;;;5074618;28;19904;-83
2021/04/07 00:43:53;;;;;;;;;;;1.40;96.60;;;;;;5077396;28;19904;-83
2021/04/07 00:46:18;;;;;;;;;;;1.40;96.10;;;;;;5060722;28;19919;-83
2021/04/07 00:48:44;;;;;;;;;;;1.30;96.50;;;;;;5060064;28;20258;-83
2021/04/07 00:51:10;;;;;;;;;;;1.40;96.20;;;;;;5058511;28;20325;-83
2021/04/07 00:53:36;;;;;;;;;;;1.40;95.90;;;;;;5058650;28;19911;-83
2021/04/07 00:56:01;;;;;;;;;;;1.30;96.60;;;;;;5058695;28;19909;-83
2021/04/07 00:58:27;;;;;;;;;;;1.30;96.10;;;;;;5058365;28;19922;-83
2021/04/07 01:00:53;;;;;;;;;;;1.30;96.50;;;;;;5059486;28;19904;-83
2021/04/07 01:03:19;;;;;;;;;;;1.30;96.60;;;;;;5057672;28;19912;-83
2021/04/07 01:05:44;;;;;;;;;;;1.30;96.50;;;;;;5057508;28;19909;-83
2021/04/07 01:08:10;;;;;;;;;;;1.20;96.60;;;;;;5057422;28;19935;-83
2021/04/07 01:10:37;;;;;;;;;;;1.30;96.80;;;;;;5056513;28;19912;-83
2021/04/07 01:13:03;;;;;;;;;;;1.40;96.80;;;;;;5057662;28;19915;-83
2021/04/07 01:15:29;;;;;;;;;;;1.30;96.80;;;;;;5058253;28;20288;-83
2021/04/07 01:17:55;;;;;;;;;;;1.30;96.80;;;;;;5056948;28;19905;-83
2021/04/07 01:20:21;;;;;;;;;;;1.30;96.80;;;;;;5059133;28;19904;-83
2021/04/07 01:22:48;;;;;;;;;;;1.40;96.80;;;;;;5058863;28;19965;-83
2021/04/07 01:25:13;;;;;;;;;;;1.50;96.60;;;;;;5056975;28;19904;-83
2021/04/07 01:27:39;;;;;;;;;;;1.40;96.20;;;;;;5057628;28;19916;-83
2021/04/07 01:30:05;;;;;;;;;;;1.50;96.20;;;;;;5057279;28;19965;-83
2021/04/07 01:32:31;;;;;;;;;;;1.50;96.20;;;;;;5057618;28;19905;-83
2021/04/07 01:34:56;;;;;;;;;;;1.40;96.30;;;;;;5059443;28;20276;-83
2021/04/07 01:37:22;;;;;;;;;;;1.40;96.00;;;;;;5079483;22;20156;-86
2021/04/07 01:39:47;;;;;;;;;;;1.50;96.10;;;;;;5054663;28;19959;-86
2021/04/07 01:42:13;;;;;;;;;;;1.40;96.30;;;;;;5036941;28;19915;-85
2021/04/07 01:44:39;;;;;;;;;;;1.60;96.00;;;;;;5036919;28;19905;-86
2021/04/07 01:47:05;;;;;;;;;;;1.40;96.20;;;;;;5037444;28;20050;-85
2021/04/07 01:49:31;;;;;;;;;;;1.50;96.30;;;;;;5056831;28;19912;-86
2021/04/07 01:51:57;;;;;;;;;;;1.30;96.10;;;;;;5056816;28;19904;-85
2021/04/07 01:54:22;;;;;;;;;;;1.40;96.40;;;;;;5056646;28;19931;-86
2021/04/07 01:56:48;;;;;;;;;;;1.30;96.20;;;;;;5056799;28;19904;-86
2021/04/07 01:59:14;;;;;;;;;;;1.30;96.40;;;;;;5056592;28;19915;-85
2021/04/07 02:01:39;;;;;;;;;;;1.20;96.60;;;;;;5074858;28;19908;-85
2021/04/07 02:04:05;;;;;;;;;;;1.20;96.70;;;;;;5056999;28;19905;-85
2021/04/07 02:06:31;;;;;;;;;;;1.20;96.90;;;;;;5056639;28;19916;-85
2021/04/07 02:08:57;;;;;;;;;;;1.20;97.10;;;;;;5056062;28;20375;-85
2021/04/07 02:11:22;;;;;;;;;;;1.40;96.80;;;;;;5055904;28;19904;-86
2021/04/07 02:13:48;;;;;;;;;;;1.30;96.60;;;;;;5074324;28;20292;-85
2021/04/07 02:16:15;;;;;;;;;;;1.30;96.60;;;;;;5056671;28;19908;-85
2021/04/07 02:18:41;;;;;;;;;;;1.30;96.70;;;;;;5056228;28;19904;-86
2021/04/07 02:21:06;;;;;;;;;;;1.30;96.60;;;;;;5073890;28;19949;-85
2021/04/07 02:23:33;;;;;;;;;;;1.40;96.60;;;;;;5055592;28;19957;-85
2021/04/07 02:25:58;;;;;;;;;;;1.40;96.50;;;;;;5056424;28;19915;-86
2021/04/07 02:28:24;;;;;;;;;;;1.30;96.50;;;;;;5074429;28;19905;-85
2021/04/07 02:30:50;;;;;;;;;;;1.50;96.80;;;;;;5056448;28;19918;-85
2021/04/07 02:33:16;;;;;;;;;;;1.50;96.40;;;;;;5056051;28;19908;-85
2021/04/07 02:35:41;;;;;;;;;;;1.40;96.40;;;;;;5056257;28;19953;-86
2021/04/07 02:38:08;;;;;;;;;;;1.50;96.60;;;;;;5073856;28;19912;-86
2021/04/07 02:40:33;;;;;;;;;;;1.40;96.70;;;;;;5055871;28;19916;-86
2021/04/07 02:42:59;;;;;;;;;;;1.40;96.60;;;;;;5056155;28;19905;-85
2021/04/07 02:45:24;;;;;;;;;;;1.40;96.80;;;;;;5055915;28;19999;-85
2021/04/07 02:47:50;;;;;;;;;;;1.40;96.50;;;;;;5055699;28;19908;-85
2021/04/07 02:50:15;;;;;;;;;;;1.50;96.40;;;;;;5055664;28;19957;-87
2021/04/07 02:52:41;;;;;;;;;;;1.30;96.70;;;;;;5056076;28;19905;-85
2021/04/07 02:55:06;;;;;;;;;;;1.30;96.80;;;;;;5055844;28;20310;-85
2021/04/07 02:57:32;;;;;;;;;;;1.30;96.90;;;;;;5055612;28;19955;-85
2021/04/07 02:59:57;;;;;;;;;;;1.40;96.70;;;;;;5073509;28;19912;-87
2021/04/07 03:02:23;;;;;;;;;;;1.40;96.70;;;;;;5055467;28;19908;-85
2021/04/07 03:04:48;;;;;;;;;;;1.40;96.80;;;;;;5073479;28;19904;-85
2021/04/07 03:07:14;;;;;;;;;;;1.30;96.70;;;;;;5055373;28;19916;-85
2021/04/07 03:09:39;;;;;;;;;;;1.40;96.90;;;;;;5055574;28;19909;-85
2021/04/07 03:12:05;;;;;;;;;;;1.30;97.00;;;;;;5055744;28;19947;-86
2021/04/07 03:14:31;;;;;;;;;;;1.30;97.10;;;;;;5055810;28;19905;-85
2021/04/07 03:16:56;;;;;;;;;;;1.30;97.20;;;;;;5055468;28;19959;-85
2021/04/07 03:19:22;;;;;;;;;;;1.20;97.60;;;;;;5055688;28;19995;-85
2021/04/07 03:21:47;;;;;;;;;;;1.20;97.80;;;;;;5055643;28;19912;-85
2021/04/07 03:24:13;;;;;;;;;;;1.20;97.90;;;;;;5055896;28;20276;-85
2021/04/07 03:26:38;;;;;;;;;;;1.20;97.80;;;;;;5073449;28;19915;-85
2021/04/07 03:29:04;;;;;;;;;;;1.30;97.70;;;;;;5055401;28;19904;-88
2021/04/07 03:31:29;;;;;;;;;;;1.30;97.60;;;;;;5055275;28;19926;-85
2021/04/07 03:33:55;;;;;;;;;;;1.40;97.60;;;;;;5074340;28;19904;-86
2021/04/07 03:36:20;;;;;;;;;;;1.40;97.60;;;;;;5059520;28;19905;-85
2021/04/07 03:38:46;;;;;;;;;;;1.50;97.60;;;;;;5059191;28;20383;-85
2021/04/07 03:41:11;;;;;;;;;;;1.50;97.60;;;;;;5059485;28;20007;-85
2021/04/07 03:43:37;;;;;;;;;;;1.40;97.70;;;;;;5077325;28;19954;-86
2021/04/07 03:46:02;;;;;;;;;;;1.40;98.10;;;;;;5059323;28;19945;-87
2021/04/07 03:48:29;;;;;;;;;;;1.40;98.10;;;;;;5059233;28;19904;-85
2021/04/07 03:50:55;;;;;;;;;;;1.40;98.10;;;;;;5059187;28;19904;-87
2021/04/07 03:53:23;;;;;;;;;;;1.40;98.00;;;;;;5059005;28;20376;-86
2021/04/07 03:55:50;;;;;;;;;;;1.40;97.80;;;;;;5059503;28;19904;-85
2021/04/07 03:58:15;;;;;;;;;;;1.50;98.00;;;;;;5077220;28;19904;-85
2021/04/07 04:00:41;;;;;;;;;;;1.40;97.80;;;;;;5058770;28;19905;-86
2021/04/07 04:03:07;;;;;;;;;;;1.40;97.90;;;;;;5076811;28;19912;-86
2021/04/07 04:05:33;;;;;;;;;;;1.50;97.60;;;;;;5058811;28;19908;-85
2021/04/07 04:07:59;;;;;;;;;;;1.40;97.70;;;;;;5075233;28;19912;-86
2021/04/07 04:10:24;;;;;;;;;;;1.50;97.70;;;;;;5058772;28;19908;-85
2021/04/07 04:12:50;;;;;;;;;;;1.40;97.60;;;;;;5076448;28;19944;-85
2021/04/07 04:15:15;;;;;;;;;;;1.40;97.90;;;;;;5058777;28;20412;-89
2021/04/07 04:17:41;;;;;;;;;;;1.40;97.80;;;;;;5075902;28;19908;-84
2021/04/07 04:20:08;;;;;;;;;;;1.50;97.60;;;;;;5058328;28;19954;-85
2021/04/07 04:22:33;;;;;;;;;;;1.40;97.90;;;;;;5058208;28;19954;-85
2021/04/07 04:24:59;;;;;;;;;;;1.50;97.60;;;;;;5058580;28;19904;-85
2021/04/07 04:27:25;;;;;;;;;;;1.50;97.60;;;;;;5076112;28;19909;-85
2021/04/07 04:29:50;;;;;;;;;;;1.60;97.70;;;;;;5076528;28;20315;-85
2021/04/07 04:32:16;;;;;;;;;;;1.50;97.60;;;;;;5076080;28;19904;-85
2021/04/07 04:34:42;;;;;;;;;;;1.50;97.80;;;;;;5076061;28;19911;-86
2021/04/07 04:37:07;;;;;;;;;;;1.60;97.60;;;;;;5057910;28;19983;-85
2021/04/07 04:39:33;;;;;;;;;;;1.70;97.80;;;;;;5058023;28;20380;-85
2021/04/07 04:41:59;;;;;;;;;;;1.70;97.60;;;;;;5057897;28;19904;-85
2021/04/07 04:44:24;;;;;;;;;;;1.60;98.30;;;;;;5075761;28;19919;-85
2021/04/07 04:46:50;;;;;;;;;;;1.70;98.10;;;;;;5074734;28;19912;-85
2021/04/07 04:49:15;;;;;;;;;;;1.60;98.60;;;;;;5057818;28;20408;-85
2021/04/07 04:51:41;;;;;;;;;;;1.60;98.90;;;;;;5057523;28;19904;-85
2021/04/07 04:54:07;;;;;;;;;;;1.60;98.90;;;;;;5075451;28;20370;-86
2021/04/07 04:56:32;;;;;;;;;;;1.50;98.80;;;;;;5057825;28;19904;-86
2021/04/07 04:58:58;;;;;;;;;;;1.50;98.70;;;;;;5057814;28;20354;-84
2021/04/07 05:01:24;;;;;;;;;;;1.50;99.00;;;;;;5075900;28;20450;-84
2021/04/07 05:03:49;;;;;;;;;;;1.50;99.30;;;;;;5057581;28;19910;-84
2021/04/07 05:06:15;;;;;;;;;;;1.40;99.30;;;;;;5074180;28;19908;-84
2021/04/07 05:08:44;;;;;;;;;;;1.40;99.20;;;;;;5057310;28;19944;-86
2021/04/07 05:11:09;;;;;;;;;;;1.40;99.20;;;;;;5057612;28;20447;-85
2021/04/07 05:13:35;;;;;;;;;;;1.50;99.20;;;;;;5075343;28;19951;-86
2021/04/07 05:16:00;;;;;;;;;;;1.50;99.20;;;;;;5057373;28;19954;-84
2021/04/07 05:18:27;;;;;;;;;;;1.40;99.30;;;;;;5057584;28;19905;-84
2021/04/07 05:20:52;;;;;;;;;;;1.40;99.10;;;;;;5057839;28;20424;-84
2021/04/07 05:23:18;;;;;;;;;;;1.40;99.40;;;;;;5075809;28;19908;-84
2021/04/07 05:25:43;;;;;;;;;;;1.40;99.50;;;;;;5057710;28;20395;-85
2021/04/07 05:28:09;;;;;;;;;;;1.40;99.80;;;;;;5057431;28;20334;-86
2021/04/07 05:33:19;;;;;;;;;;;1.40;99.60;;;;;;5076170;28;19946;-84
2021/04/07 05:35:44;;;;;;;;;;;1.40;99.80;;;;;;5075597;28;20295;-84
2021/04/07 05:38:10;;;;;;;;;;;1.40;99.60;;;;;;5057187;28;19935;-85
2021/04/07 05:40:36;;;;;;;;;;;1.50;99.40;;;;;;5056973;28;20293;-84
2021/04/07 05:43:07;;;;;;;;;;;1.50;99.30;;;;;;5057304;28;19904;-85
2021/04/07 05:45:33;;;;;;;;;;;1.50;99.50;;;;;;5058449;28;19904;-85
2021/04/07 05:47:59;;;;;;;;;;;1.50;99.50;;;;;;5058899;28;20470;-84
2021/04/07 05:50:25;;;;;;;;;;;1.50;99.90;;;;;;5058943;28;19919;-84
2021/04/07 05:52:51;;;;;;;;;;;1.40;99.70;;;;;;5058963;28;19904;-84
2021/04/07 05:55:20;;;;;;;;;;;1.50;99.90;;;;;;5058121;28;19912;-85
2021/04/07 05:58:15;;;;;;;;;;;1.50;99.90;;;;;;5059306;28;19911;-86
2021/04/07 06:00:41;;;;;;;;;;;1.50;99.80;;;;;;5040577;28;19908;-84
2021/04/07 06:03:07;;;;;;;;;;;1.50;99.90;;;;;;5056835;28;20000;-84
2021/04/07 06:05:36;;;;;;;;;;;1.40;99.90;;;;;;5057564;28;20345;-84
2021/04/07 06:08:02;;;;;;;;;;;1.50;99.90;;;;;;5057714;28;19904;-84
2021/04/07 06:10:28;;;;;;;;;;;1.60;99.90;;;;;;5059020;28;20007;-85
2021/04/07 06:12:53;;;;;;;;;;;1.40;99.70;;;;;;5057786;28;20003;-84
2021/04/07 06:15:22;;;;;;;;;;;1.50;99.90;;;;;;5056993;28;19904;-85
2021/04/07 06:17:56;;;;;;;;;;;1.50;99.90;;;;;;5056578;28;19904;-84
2021/04/07 06:20:22;;;;;;;;;;;1.50;99.90;;;;;;5056278;28;19999;-85
2021/04/07 06:22:48;;;;;;;;;;;1.50;99.90;;;;;;5056107;28;20391;-84
2021/04/07 06:25:14;;;;;;;;;;;1.50;99.90;;;;;;5055800;28;19908;-85
2021/04/07 06:27:40;;;;;;;;;;;1.50;99.90;;;;;;5055740;28;19913;-84
2021/04/07 06:30:06;;;;;;;;;;;1.50;99.80;;;;;;5057212;28;19911;-85
2021/04/07 06:32:31;;;;;;;;;;;1.50;99.90;;;;;;5056530;28;19991;-84
2021/04/07 06:34:57;;;;;;;;;;;1.40;99.90;;;;;;5056552;28;19904;-84
2021/04/07 06:37:23;;;;;;;;;;;1.40;99.90;;;;;;5056387;28;20351;-86
2021/04/07 06:39:48;;;;;;;;;;;1.40;99.90;;;;;;5056469;28;19908;-85
2021/04/07 06:42:14;;;;;;;;;;;1.50;99.90;;;;;;5075671;28;20319;-84
2021/04/07 06:44:40;;;;;;;;;;;1.50;99.90;;;;;;5057069;28;20288;-85
2021/04/07 06:47:06;;;;;;;;;;;1.50;99.80;;;;;;5057438;28;19909;-85
2021/04/07 06:49:32;;;;;;;;;;;1.50;99.70;;;;;;5057410;28;20269;-84
2021/04/07 06:52:00;;;;;;;;;;;1.40;99.60;;;;;;5057081;28;19904;-85
2021/04/07 06:54:26;;;;;;;;;;;1.50;99.80;;;;;;5057362;28;19905;-84
2021/04/07 06:56:52;;;;;;;;;;;1.60;99.90;;;;;;5056461;28;20262;-84
2021/04/07 06:59:17;;;;;;;;;;;1.60;99.90;;;;;;5056632;28;19926;-86
2021/04/07 07:01:43;;;;;;;;;;;1.50;99.60;;;;;;5056329;28;19908;-85
2021/04/07 07:04:08;;;;;;;;;;;1.60;99.80;;;;;;5056578;28;19911;-85
2021/04/07 07:06:34;;;;;;;;;;;1.60;99.60;;;;;;5056591;28;19960;-84
2021/04/07 07:09:10;;;;;;;;;;;1.50;99.80;;;;;;5056195;28;19911;-85
2021/04/07 07:11:36;;;;;;;;;;;1.60;99.90;;;;;;5056357;28;20372;-84
2021/04/07 07:14:02;;;;;;;;;;;1.60;99.80;;;;;;5056409;28;19904;-86
2021/04/07 07:16:27;;;;;;;;;;;1.60;99.70;;;;;;5056509;28;19904;-84
2021/04/07 07:18:53;;;;;;;;;;;1.60;99.60;;;;;;5056417;28;19952;-84
2021/04/07 07:21:19;;;;;;;;;;;1.60;99.80;;;;;;5056765;28;19970;-84
2021/04/07 07:23:46;;;;;;;;;;;1.50;99.80;;;;;;5056342;28;19904;-84
2021/04/07 07:26:12;;;;;;;;;;;1.50;99.90;;;;;;5056516;28;19912;-84
2021/04/07 07:28:44;;;;;;;;;;;1.50;99.90;;;;;;5056930;28;20269;-84
2021/04/07 07:31:17;;;;;;;;;;;1.50;99.80;;;;;;5056253;28;19904;-87
2021/04/07 07:33:42;;;;;;;;;;;1.40;99.90;;;;;;5056594;28;20276;-85
2021/04/07 07:36:09;;;;;;;;;;;1.40;99.90;;;;;;5056229;28;19905;-84
2021/04/07 07:38:34;;;;;;;;;;;1.40;99.90;;;;;;5057854;28;19966;-85
2021/04/07 07:41:05;;;;;;;;;;;1.40;99.90;;;;;;5060889;28;19904;-85
2021/04/07 07:43:32;;;;;;;;;;;1.50;99.90;;;;;;5077526;28;19936;-85
2021/04/07 07:46:05;;;;;;;;;;;1.50;99.90;;;;;;5079531;28;19927;-86
2021/04/07 07:48:32;;;;;;;;;;;1.40;99.90;;;;;;5065193;28;20594;-85
2021/04/07 07:50:57;;;;;;;;;;;1.50;99.90;;;;;;5078833;28;19927;-85
2021/04/07 07:53:23;;;;;;;;;;;1.50;99.90;;;;;;5077238;28;19908;-85
2021/04/07 07:55:50;;;;;;;;;;;1.50;99.90;;;;;;5059106;28;19904;-85
2021/04/07 07:58:16;;;;;;;;;;;1.60;99.90;;;;;;5064510;28;20364;-85
2021/04/07 08:00:42;;;;;;;;;;;1.60;99.60;;;;;;5059888;28;19911;-85
2021/04/07 08:03:08;;;;;;;;;;;1.50;99.50;;;;;;5057830;28;19931;-85
2021/04/07 08:05:34;;;;;;;;;;;1.60;99.70;;;;;;5054848;28;20284;-85
2021/04/07 08:08:02;;;;;;;;;;;1.60;99.80;;;;;;5055516;28;19929;-84
2021/04/07 08:10:28;;;;;;;;;;;1.60;99.90;;;;;;5056725;28;19904;-85
2021/04/07 08:12:53;;;;;;;;;;;1.70;99.70;;;;;;5057181;28;20398;-85
2021/04/07 08:15:19;;;;;;;;;;;1.60;99.90;;;;;;5057380;28;19912;-85
2021/04/07 08:17:45;;;;;;;;;;;1.60;99.90;;;;;;5074453;28;19904;-84
2021/04/07 08:20:11;;;;;;;;;;;1.50;99.60;;;;;;5055711;28;19994;-85
2021/04/07 08:22:37;;;;;;;;;;;1.60;99.90;;;;;;5059529;28;19944;-85
2021/04/07 08:25:03;;;;;;;;;;;1.60;99.90;;;;;;5059702;28;20257;-85
2021/04/07 08:27:28;;;;;;;;;;;1.70;99.70;;;;;;5058673;28;20272;-85
2021/04/07 08:29:54;;;;;;;;;;;1.70;99.90;;;;;;5076377;28;19904;-84
2021/04/07 08:32:20;;;;;;;;;;;1.80;99.80;;;;;;5077087;28;19912;-86
2021/04/07 08:34:46;;;;;;;;;;;1.80;99.70;;;;;;5059951;28;19934;-85
2021/04/07 08:37:17;;;;;;;;;;;1.80;99.80;;;;;;5076635;28;19908;-85
2021/04/07 08:39:43;;;;;;;;;;;1.80;99.70;;;;;;5058014;28;20389;-86
2021/04/07 08:42:09;;;;;;;;;;;1.90;99.80;;;;;;5059067;28;19911;-85
2021/04/07 08:44:35;;;;;;;;;;;1.90;99.90;;;;;;5059185;28;19908;-84
2021/04/07 08:47:00;;;;;;;;;;;1.90;99.90;;;;;;5058710;28;20315;-86
2021/04/07 08:49:32;;;;;;;;;;;1.90;99.90;;;;;;5058317;28;19905;-85
2021/04/07 08:51:58;;;;;;;;;;;2.00;99.90;;;;;;5059337;28;19904;-85
2021/04/07 08:54:23;;;;;;;;;;;2.00;99.90;;;;;;5059122;28;19909;-85
2021/04/07 08:56:53;;;;;;;;;;;2.00;99.90;;;;;;5059806;28;20320;-85
2021/04/07 08:59:22;;;;;;;;;;;2.00;99.90;;;;;;5060669;28;19968;-85
2021/04/07 09:01:47;;;;;;;;;;;2.00;99.90;;;;;;5081036;28;19920;-85
2021/04/07 09:04:19;;;;;;;;;;;2.10;99.90;;;;;;5064948;28;19908;-85
2021/04/07 09:06:59;;;;;;;;;;;2.10;99.90;;;;;;5062402;28;19930;-86
2021/04/07 09:09:24;;;;;;;;;;;2.10;99.90;;;;;;5057712;28;19905;-85
2021/04/07 09:11:51;;;;;;;;;;;2.10;99.90;;;;;;5058536;28;20304;-84
2021/04/07 09:14:16;;;;;;;;;;;2.20;99.90;;;;;;5077533;28;19904;-85
2021/04/07 09:16:42;;;;;;;;;;;2.10;99.90;;;;;;5057549;28;19904;-84
2021/04/07 09:19:15;;;;;;;;;;;2.20;99.90;;;;;;5057239;28;19908;-85
2021/04/07 09:21:51;;;;;;;;;;;2.20;99.90;;;;;;5057811;28;20316;-84
2021/04/07 09:24:17;;;;;;;;;;;2.10;99.90;;;;;;5058749;28;20274;-84
2021/04/07 09:26:45;;;;;;;;;;;2.20;99.90;;;;;;5075937;28;19953;-85
2021/04/07 09:29:11;;;;;;;;;;;2.20;99.90;;;;;;5076360;28;19940;-85
2021/04/07 09:31:39;;;;;;;;;;;2.20;99.90;;;;;;5059002;28;20261;-85
2021/04/07 09:34:04;;;;;;;;;;;2.20;99.90;;;;;;5075801;28;20416;-84
2021/04/07 09:36:30;;;;;;;;;;;2.30;99.90;;;;;;5059689;28;19997;-85
2021/04/07 09:38:56;;;;;;;;;;;2.30;99.90;;;;;;5077340;28;19991;-85
2021/04/07 09:41:25;;;;;;;;;;;2.40;99.90;;;;;;5076553;28;19904;-85
2021/04/07 09:43:51;;;;;;;;;;;2.40;99.90;;;;;;5060519;28;19958;-85
2021/04/07 09:46:16;;;;;;;;;;;2.40;99.90;;;;;;5077724;28;19908;-85
2021/04/07 09:48:57;;;;;;;;;;;2.40;99.90;;;;;;5060650;28;19904;-85
2021/04/07 09:51:28;;;;;;;;;;;2.50;99.90;;;;;;5059846;28;19908;-85
2021/04/07 09:53:54;;;;;;;;;;;2.50;99.90;;;;;;5076201;28;19914;-85
2021/04/07 09:56:20;;;;;;;;;;;2.50;99.90;;;;;;5058059;28;19919;-85
2021/04/07 09:58:48;;;;;;;;;;;2.50;99.90;;;;;;5058801;28;19904;-85
2021/04/07 10:01:15;;;;;;;;;;;2.50;99.90;;;;;;5056750;28;19908;-85
2021/04/07 10:04:17;;;;;;;;;;;2.60;99.90;;;;;;5075461;28;19940;-85
2021/04/07 10:41:21;;;;;;;;;;;3.80;99.90;;;;;;4880023;29;20465;-86
2021/04/07 10:50:38;;;;;;;;;;;4.30;99.90;;;;;;5013589;28;19964;-84
2021/04/07 10:54:00;;;;;;;;;;;4.40;99.90;;;;;;4955369;28;19910;-87
2021/04/07 11:03:13;;;;;;;;;;;4.30;99.90;;;;;;4973333;28;19925;-86
2021/04/07 11:12:32;;;;;;;;;;;4.50;99.90;;;;;;4918271;29;19943;-87
2021/04/07 11:15:34;;;;;;;;;;;4.60;99.90;;;;;;4910889;29;20518;-88
2021/04/07 11:21:56;;;;;;;;;;;4.60;99.90;;;;;;4843907;29;19915;-87
2021/04/07 11:25:01;;;;;;;;;;;4.50;99.90;;;;;;4823942;29;19960;-86
2021/04/07 11:28:24;;;;;;;;;;;4.30;99.90;;;;;;4825325;29;19919;-86
2021/04/07 11:33:35;;;;;;;;;;;3.90;99.90;;;;;;5003450;28;19905;-87
2021/04/07 11:36:09;;;;;;;;;;;3.70;99.90;;;;;;5056091;28;19935;-87
2021/04/07 11:38:36;;;;;;;;;;;3.60;99.90;;;;;;5078200;28;19950;-87
2021/04/07 11:46:24;;;;;;;;;;;3.80;99.90;;;;;;5076856;28;19912;-87
2021/04/07 11:48:49;;;;;;;;;;;3.90;99.90;;;;;;5057522;28;20050;-88
2021/04/07 11:51:15;;;;;;;;;;;4.00;99.90;;;;;;5057563;28;19905;-87
2021/04/07 11:53:40;;;;;;;;;;;4.10;99.90;;;;;;5057768;28;19908;-87
2021/04/07 11:56:06;;;;;;;;;;;4.10;99.90;;;;;;5060516;28;19923;-87
2021/04/07 11:58:32;;;;;;;;;;;4.20;99.90;;;;;;5063058;28;19999;-87
2021/04/07 12:00:57;;;;;;;;;;;4.30;99.90;;;;;;5062025;28;20311;-87
2021/04/07 12:03:23;;;;;;;;;;;4.40;99.90;;;;;;5061651;28;19908;-86
2021/04/07 12:05:48;;;;;;;;;;;4.40;99.90;;;;;;5061147;28;19919;-87
2021/04/07 12:08:14;;;;;;;;;;;4.50;99.90;;;;;;5061907;28;19931;-86
2021/04/07 12:10:39;;;;;;;;;;;4.40;99.90;;;;;;5060014;28;19911;-87
2021/04/07 12:13:05;;;;;;;;;;;4.40;99.90;;;;;;5060851;28;19912;-86
2021/04/07 12:15:31;;;;;;;;;;;4.40;99.90;;;;;;5061324;28;20391;-87
2021/04/07 12:17:56;;;;;;;;;;;4.30;99.20;;;;;;5079799;28;20368;-87
2021/04/07 12:20:22;;;;;;;;;;;4.30;99.90;;;;;;5079103;28;19909;-87
2021/04/07 12:22:50;;;;;;;;;;;4.30;99.60;;;;;;5060807;28;19905;-87
2021/04/07 12:25:19;;;;;;;;;;;4.20;99.50;;;;;;5061142;28;19904;-87
2021/04/07 12:27:44;;;;;;;;;;;4.20;99.50;;;;;;5061230;28;19909;-87
2021/04/07 12:30:10;;;;;;;;;;;4.30;99.60;;;;;;5077448;28;19996;-87
2021/04/07 12:32:35;;;;;;;;;;;4.30;99.60;;;;;;5060417;28;19955;-87
2021/04/07 12:35:03;;;;;;;;;;;4.40;99.70;;;;;;5060732;28;19911;-87
2021/04/07 12:37:30;;;;;;;;;;;4.50;99.80;;;;;;5060742;28;19904;-87
2021/04/07 12:39:55;;;;;;;;;;;4.50;99.00;;;;;;5078119;28;19910;-88
2021/04/07 12:42:26;;;;;;;;;;;4.60;99.40;;;;;;5058488;28;20046;-87
2021/04/07 12:44:52;;;;;;;;;;;4.50;99.00;;;;;;5058384;28;20370;-87
2021/04/07 12:47:18;;;;;;;;;;;4.60;98.20;;;;;;5058257;28;20015;-87
2021/04/07 12:49:43;;;;;;;;;;;4.60;98.40;;;;;;5057482;28;20026;-86
2021/04/07 12:52:09;;;;;;;;;;;4.60;98.30;;;;;;5077488;28;19905;-86
2021/04/07 12:54:35;;;;;;;;;;;4.70;98.00;;;;;;5061481;28;19954;-87
2021/04/07 12:57:03;;;;;;;;;;;4.70;97.70;;;;;;5077485;28;19908;-87
2021/04/07 12:59:29;;;;;;;;;;;4.80;97.90;;;;;;5061126;28;19904;-87
2021/04/07 13:01:54;;;;;;;;;;;4.80;97.60;;;;;;5059904;28;19911;-87
2021/04/07 13:04:20;;;;;;;;;;;4.90;97.70;;;;;;5059883;28;19911;-87
2021/04/07 13:06:45;;;;;;;;;;;4.90;97.70;;;;;;5060078;28;19935;-87
2021/04/07 13:09:11;;;;;;;;;;;5.00;97.60;;;;;;5060362;28;19959;-87
2021/04/07 13:11:37;;;;;;;;;;;5.20;97.60;;;;;;5062766;28;19904;-86
2021/04/07 13:14:02;;;;;;;;;;;5.20;96.90;;;;;;5059526;28;19908;-86
2021/04/07 13:16:28;;;;;;;;;;;5.20;96.80;;;;;;5076765;28;19969;-88
2021/04/07 13:18:58;;;;;;;;;;;5.40;96.20;;;;;;5059380;28;20618;-87
2021/04/07 13:21:26;;;;;;;;;;;5.40;96.80;;;;;;5060431;28;19965;-87
2021/04/07 13:23:57;;;;;;;;;;;5.50;97.20;;;;;;5060897;28;19908;-87
2021/04/07 13:26:22;;;;;;;;;;;5.50;96.30;;;;;;5060065;28;19908;-87
2021/04/07 13:28:48;;;;;;;;;;;5.50;95.10;;;;;;5078315;28;19954;-87
2021/04/07 13:31:14;;;;;;;;;;;5.50;94.70;;;;;;5060090;28;20277;-87
2021/04/07 13:33:45;;;;;;;;;;;5.60;94.40;;;;;;5061901;28;19947;-87
2021/04/07 13:36:16;;;;;;;;;;;5.60;93.00;;;;;;5080894;28;20077;-87
2021/04/07 13:39:49;;;;;;;;;;;5.70;91.30;;;;;;5059804;28;19911;-88
2021/04/07 13:44:28;;;;;;;;;;;5.80;91.90;;;;;;5052317;28;19905;-85
2021/04/07 13:46:54;;;;;;;;;;;5.90;91.30;;;;;;5056858;28;19923;-87
2021/04/07 13:49:25;;;;;;;;;;;6.00;91.60;;;;;;5056538;28;19926;-86
2021/04/07 13:51:53;;;;;;;;;;;6.00;91.40;;;;;;5056518;28;19905;-86
2021/04/07 13:54:19;;;;;;;;;;;6.00;90.70;;;;;;5057085;28;19904;-88
2021/04/07 13:59:33;;;;;;;;;;;5.90;91.70;;;;;;5074993;28;19904;-86
2021/04/07 14:01:58;;;;;;;;;;;5.80;91.60;;;;;;5056463;28;20327;-86
2021/04/07 14:04:24;;;;;;;;;;;5.90;92.10;;;;;;5057887;28;19908;-86
2021/04/07 14:06:53;;;;;;;;;;;5.90;93.10;;;;;;5054934;28;19908;-86
2021/04/07 14:09:22;;;;;;;;;;;5.90;91.60;;;;;;5058332;28;20375;-86
2021/04/07 14:11:47;;;;;;;;;;;5.90;90.20;;;;;;5057687;28;19940;-86
2021/04/07 14:14:13;;;;;;;;;;;5.90;90.90;;;;;;5057771;28;19923;-86
2021/04/07 14:16:38;;;;;;;;;;;6.00;90.50;;;;;;5057353;28;19908;-85
2021/04/07 14:19:04;;;;;;;;;;;5.90;90.40;;;;;;5057817;28;20011;-88
2021/04/07 14:21:29;;;;;;;15.27;2.47;;;5.70;92.50;;;;;;5058350;28;19991;-86
2021/04/07 14:23:55;;;;;;;10.73;1.77;;;5.40;94.20;;;;;;5058494;28;20024;-86
2021/04/07 14:26:22;;;;;;;11.43;2.27;;;4.90;95.00;;;;;;5058483;28;20028;-88
2021/04/07 14:28:49;;;;;;;10.47;1.60;;;4.50;95.60;;;;;;5058499;28;20052;-86
2021/04/07 14:31:15;;;;;;;11.57;2.50;;;4.30;97.00;;;;;;5058823;28;20025;-86
2021/04/07 14:33:41;;;;;;;12.27;2.03;;;4.10;97.70;;;;;;5058905;28;20031;-88
2021/04/07 14:36:07;;;;;;;13.40;2.40;;;4.10;98.00;;;;;;5058772;28;20378;-86
2021/04/07 14:38:32;;;;;;;8.70;1.67;;;4.10;98.00;;;;;;5058321;28;20070;-87
2021/04/07 14:40:58;;;;;;;11.40;1.50;;;4.10;97.50;;;;;;5057919;28;20024;-88
2021/04/07 14:43:24;;;;;;;9.23;1.77;;;4.30;97.50;;;;;;5057942;28;20508;-86
2021/04/07 14:45:50;;;;;;;8.47;1.83;;;4.40;97.40;;;;;;5057253;28;20028;-87
2021/04/07 14:48:20;;;;;;;11.73;2.00;;;4.50;97.20;;;;;;5057390;28;20535;-85
2021/04/07 14:50:51;;;;;;;14.93;2.03;;;4.50;96.50;;;;;;5058018;28;20029;-85
2021/04/07 14:53:20;;;;;;;10.17;1.90;;;4.60;96.40;;;;;;5057630;28;20050;-87
2021/04/07 14:55:49;;;;;;;10.75;1.92;;;4.80;95.40;;;;;;5057944;28;20031;-87
2021/04/07 14:58:19;;;;;;;11.65;2.25;;;4.80;95.00;;;;;;5057736;28;20024;-87
2021/04/07 15:00:46;;;;;;;13.20;1.53;;;4.90;94.30;;;;;;5057878;28;20488;-88
2021/04/07 15:03:11;;;;;;;10.30;1.80;;;5.00;94.20;;;;;;5057054;28;20047;-85
2021/04/07 15:05:40;;;;;;;9.30;1.67;;;5.00;94.40;;;;;;5056367;28;20020;-85
2021/04/07 15:08:06;;;;;;;9.47;1.70;;;5.10;93.20;;;;;;5055979;28;20370;-86
2021/04/07 15:10:32;;;;;;;15.90;2.10;;;5.30;93.20;;;;;;5056010;28;20141;-85
2021/04/07 15:13:00;;;;;;;11.87;2.20;;;5.30;92.20;;;;;;5055638;28;20501;-86
2021/04/07 15:15:29;;;;;;;13.77;2.13;;;5.30;92.50;;;;;;5056705;28;20021;-87
2021/04/07 15:17:55;;;;;;;12.48;2.00;;;5.40;90.70;;;;;;5056710;28;20303;-85
2021/04/07 15:20:22;;;;;;;10.73;2.00;;;5.50;90.70;;;;;;5055969;28;20092;-85
2021/04/07 15:22:48;;;;;;;10.00;2.03;;;5.50;90.00;;;;;;5055531;28;20029;-87
2021/04/07 15:25:18;;;;;;;11.83;2.03;;;5.50;87.20;;;;;;5055853;28;20123;-86
2021/04/07 15:30:24;;;;;;;10.40;2.53;;;5.40;85.30;;;;;;5075199;28;20016;-84
2021/04/07 15:32:51;;;;;;;17.70;2.80;;;5.40;85.70;;;;;;5059237;28;20078;-87
2021/04/07 15:35:17;;;;;;;12.17;2.00;;;5.50;86.80;;;;;;5059077;28;20120;-85
2021/04/07 15:37:46;;;;;;;16.30;2.63;;;5.50;84.70;;;;;;5059112;28;20557;-86